sensor_id;sensor_type;location;lat;lon;timestamp;P1;durP1;ratioP1;P2;durP2;ratioP2
53261;SDS011;39658;51.090;-1.786;2024-02-26T00:01:50;12.55;;;5.45;;
53261;SDS011;39658;51.090;-1.786;2024-02-26T00:04:18;13.80;;;6.05;;
53261;SDS011;39658;51.090;-1.786;2024-02-26T00:06:46;9.38;;;4.07;;
53261;SDS011;39658;51.090;-1.786;2024-02-26T00:09:15;16.85;;;4.90;;
53261;SDS011;39658;51.090;-1.786;2024-02-26T00:11:42;10.02;;;4.60;;
53261;SDS011;39658;51.090;-1.786;2024-02-26T00:14:09;10.65;;;4.03;;
53261;SDS011;39658;51.090;-1.786;2024-02-26T00:16:36;9.50;;;4.13;;
53261;SDS011;39658;51.090;-1.786;2024-02-26T00:19:02;11.50;;;4.85;;
53261;SDS011;39658;51.090;-1.786;2024-02-26T00:21:31;10.15;;;3.63;;
53261;SDS011;39658;51.090;-1.786;2024-02-26T00:23:57;10.73;;;4.03;;
53261;SDS011;39658;51.090;-1.786;2024-02-26T00:26:24;11.25;;;4.22;;
53261;SDS011;39658;51.090;-1.786;2024-02-26T00:28:51;9.95;;;3.45;;
53261;SDS011;39658;51.090;-1.786;2024-02-26T00:31:18;9.55;;;3.38;;
53261;SDS011;39658;51.090;-1.786;2024-02-26T00:33:44;9.23;;;3.58;;
53261;SDS011;39658;51.090;-1.786;2024-02-26T00:36:11;11.82;;;3.60;;
53261;SDS011;39658;51.090;-1.786;2024-02-26T00:38:39;12.10;;;3.67;;
53261;SDS011;39658;51.090;-1.786;2024-02-26T00:41:08;12.25;;;4.05;;
53261;SDS011;39658;51.090;-1.786;2024-02-26T00:43:34;9.40;;;3.72;;
53261;SDS011;39658;51.090;-1.786;2024-02-26T00:46:03;9.50;;;3.90;;
53261;SDS011;39658;51.090;-1.786;2024-02-26T00:48:30;13.65;;;4.88;;
53261;SDS011;39658;51.090;-1.786;2024-02-26T00:50:57;10.70;;;4.00;;
53261;SDS011;39658;51.090;-1.786;2024-02-26T00:53:23;8.82;;;4.25;;
53261;SDS011;39658;51.090;-1.786;2024-02-26T00:55:52;11.57;;;4.65;;
53261;SDS011;39658;51.090;-1.786;2024-02-26T00:58:19;18.92;;;5.50;;
53261;SDS011;39658;51.090;-1.786;2024-02-26T01:00:46;10.05;;;3.92;;
53261;SDS011;39658;51.090;-1.786;2024-02-26T01:03:12;16.92;;;4.50;;
53261;SDS011;39658;51.090;-1.786;2024-02-26T01:05:39;7.03;;;3.38;;
53261;SDS011;39658;51.090;-1.786;2024-02-26T01:08:07;14.77;;;4.68;;
53261;SDS011;39658;51.090;-1.786;2024-02-26T01:10:33;11.75;;;4.18;;
53261;SDS011;39658;51.090;-1.786;2024-02-26T01:13:01;15.18;;;4.50;;
53261;SDS011;39658;51.090;-1.786;2024-02-26T01:15:28;10.63;;;3.95;;
53261;SDS011;39658;51.090;-1.786;2024-02-26T01:17:55;14.90;;;5.75;;
53261;SDS011;39658;51.090;-1.786;2024-02-26T01:20:22;11.27;;;4.70;;
53261;SDS011;39658;51.090;-1.786;2024-02-26T01:22:49;10.23;;;4.13;;
53261;SDS011;39658;51.090;-1.786;2024-02-26T01:25:16;9.77;;;4.28;;
53261;SDS011;39658;51.090;-1.786;2024-02-26T01:27:43;13.18;;;5.63;;
53261;SDS011;39658;51.090;-1.786;2024-02-26T01:30:11;9.63;;;4.10;;
53261;SDS011;39658;51.090;-1.786;2024-02-26T01:32:41;9.38;;;4.25;;
53261;SDS011;39658;51.090;-1.786;2024-02-26T01:35:08;11.73;;;3.78;;
53261;SDS011;39658;51.090;-1.786;2024-02-26T01:37:37;9.50;;;4.30;;
53261;SDS011;39658;51.090;-1.786;2024-02-26T01:40:04;10.50;;;4.20;;
53261;SDS011;39658;51.090;-1.786;2024-02-26T01:42:32;8.00;;;3.63;;
53261;SDS011;39658;51.090;-1.786;2024-02-26T01:44:59;11.15;;;3.80;;
53261;SDS011;39658;51.090;-1.786;2024-02-26T01:47:27;11.70;;;3.95;;
53261;SDS011;39658;51.090;-1.786;2024-02-26T01:49:54;16.73;;;4.38;;
53261;SDS011;39658;51.090;-1.786;2024-02-26T01:52:21;9.73;;;3.75;;
53261;SDS011;39658;51.090;-1.786;2024-02-26T01:54:48;12.63;;;4.05;;
53261;SDS011;39658;51.090;-1.786;2024-02-26T01:57:16;8.65;;;3.63;;
53261;SDS011;39658;51.090;-1.786;2024-02-26T01:59:43;8.77;;;4.35;;
53261;SDS011;39658;51.090;-1.786;2024-02-26T02:02:10;8.82;;;3.05;;
53261;SDS011;39658;51.090;-1.786;2024-02-26T02:04:40;7.57;;;3.15;;
53261;SDS011;39658;51.090;-1.786;2024-02-26T02:07:08;8.90;;;3.00;;
53261;SDS011;39658;51.090;-1.786;2024-02-26T02:09:34;8.55;;;3.20;;
53261;SDS011;39658;51.090;-1.786;2024-02-26T02:12:01;10.23;;;3.33;;
53261;SDS011;39658;51.090;-1.786;2024-02-26T02:14:28;14.50;;;3.25;;
53261;SDS011;39658;51.090;-1.786;2024-02-26T02:16:55;11.48;;;3.90;;
53261;SDS011;39658;51.090;-1.786;2024-02-26T02:19:22;8.35;;;3.42;;
53261;SDS011;39658;51.090;-1.786;2024-02-26T02:21:50;9.40;;;3.05;;
53261;SDS011;39658;51.090;-1.786;2024-02-26T02:24:17;9.70;;;3.42;;
53261;SDS011;39658;51.090;-1.786;2024-02-26T02:26:44;11.88;;;3.30;;
53261;SDS011;39658;51.090;-1.786;2024-02-26T02:29:11;10.30;;;2.85;;
53261;SDS011;39658;51.090;-1.786;2024-02-26T02:31:39;6.13;;;2.00;;
53261;SDS011;39658;51.090;-1.786;2024-02-26T02:34:06;9.65;;;3.45;;
53261;SDS011;39658;51.090;-1.786;2024-02-26T02:36:34;10.38;;;3.28;;
53261;SDS011;39658;51.090;-1.786;2024-02-26T02:39:02;10.20;;;2.95;;
53261;SDS011;39658;51.090;-1.786;2024-02-26T02:41:29;10.68;;;3.00;;
53261;SDS011;39658;51.090;-1.786;2024-02-26T02:43:56;6.93;;;2.92;;
53261;SDS011;39658;51.090;-1.786;2024-02-26T02:46:22;10.93;;;3.50;;
53261;SDS011;39658;51.090;-1.786;2024-02-26T02:48:49;7.95;;;2.67;;
53261;SDS011;39658;51.090;-1.786;2024-02-26T02:51:16;7.00;;;3.63;;
53261;SDS011;39658;51.090;-1.786;2024-02-26T02:53:43;8.23;;;3.08;;
53261;SDS011;39658;51.090;-1.786;2024-02-26T02:56:11;14.73;;;3.05;;
53261;SDS011;39658;51.090;-1.786;2024-02-26T02:58:38;6.72;;;2.45;;
53261;SDS011;39658;51.090;-1.786;2024-02-26T03:01:05;6.20;;;2.50;;
53261;SDS011;39658;51.090;-1.786;2024-02-26T03:03:31;6.35;;;2.17;;
53261;SDS011;39658;51.090;-1.786;2024-02-26T03:05:58;9.80;;;2.60;;
53261;SDS011;39658;51.090;-1.786;2024-02-26T03:08:26;5.35;;;2.35;;
53261;SDS011;39658;51.090;-1.786;2024-02-26T03:10:53;9.13;;;2.65;;
53261;SDS011;39658;51.090;-1.786;2024-02-26T03:13:21;5.38;;;2.33;;
53261;SDS011;39658;51.090;-1.786;2024-02-26T03:15:48;7.30;;;2.88;;
53261;SDS011;39658;51.090;-1.786;2024-02-26T03:18:15;8.85;;;2.78;;
53261;SDS011;39658;51.090;-1.786;2024-02-26T03:20:42;7.32;;;2.75;;
53261;SDS011;39658;51.090;-1.786;2024-02-26T03:23:09;6.60;;;2.15;;
53261;SDS011;39658;51.090;-1.786;2024-02-26T03:25:37;7.32;;;2.15;;
53261;SDS011;39658;51.090;-1.786;2024-02-26T03:28:05;5.20;;;1.90;;
53261;SDS011;39658;51.090;-1.786;2024-02-26T03:30:33;7.25;;;2.00;;
53261;SDS011;39658;51.090;-1.786;2024-02-26T03:33:00;10.80;;;2.30;;
53261;SDS011;39658;51.090;-1.786;2024-02-26T03:35:27;9.73;;;2.38;;
53261;SDS011;39658;51.090;-1.786;2024-02-26T03:37:54;5.10;;;2.38;;
53261;SDS011;39658;51.090;-1.786;2024-02-26T03:40:21;5.32;;;1.63;;
53261;SDS011;39658;51.090;-1.786;2024-02-26T03:42:48;6.75;;;2.28;;
53261;SDS011;39658;51.090;-1.786;2024-02-26T03:45:13;6.18;;;1.73;;
53261;SDS011;39658;51.090;-1.786;2024-02-26T03:47:42;3.55;;;1.40;;
53261;SDS011;39658;51.090;-1.786;2024-02-26T03:50:09;5.20;;;1.90;;
53261;SDS011;39658;51.090;-1.786;2024-02-26T03:52:36;5.15;;;1.88;;
53261;SDS011;39658;51.090;-1.786;2024-02-26T03:55:03;7.70;;;2.05;;
53261;SDS011;39658;51.090;-1.786;2024-02-26T03:57:30;7.45;;;1.80;;
53261;SDS011;39658;51.090;-1.786;2024-02-26T03:59:57;7.28;;;2.63;;
53261;SDS011;39658;51.090;-1.786;2024-02-26T04:02:23;4.80;;;1.60;;
53261;SDS011;39658;51.090;-1.786;2024-02-26T04:04:52;5.50;;;1.65;;
53261;SDS011;39658;51.090;-1.786;2024-02-26T04:07:18;7.18;;;2.00;;
53261;SDS011;39658;51.090;-1.786;2024-02-26T04:09:45;5.88;;;1.83;;
53261;SDS011;39658;51.090;-1.786;2024-02-26T04:12:12;6.40;;;1.90;;
53261;SDS011;39658;51.090;-1.786;2024-02-26T04:14:39;7.07;;;2.40;;
53261;SDS011;39658;51.090;-1.786;2024-02-26T04:17:06;8.48;;;2.20;;
53261;SDS011;39658;51.090;-1.786;2024-02-26T04:19:33;4.50;;;1.52;;
53261;SDS011;39658;51.090;-1.786;2024-02-26T04:22:01;5.85;;;1.73;;
53261;SDS011;39658;51.090;-1.786;2024-02-26T04:24:28;5.78;;;1.60;;
53261;SDS011;39658;51.090;-1.786;2024-02-26T04:26:55;5.22;;;1.48;;
53261;SDS011;39658;51.090;-1.786;2024-02-26T04:29:21;9.23;;;1.90;;
53261;SDS011;39658;51.090;-1.786;2024-02-26T04:31:48;10.90;;;2.70;;
53261;SDS011;39658;51.090;-1.786;2024-02-26T04:34:15;6.47;;;2.00;;
53261;SDS011;39658;51.090;-1.786;2024-02-26T04:36:42;8.73;;;1.65;;
53261;SDS011;39658;51.090;-1.786;2024-02-26T04:39:10;9.23;;;2.03;;
53261;SDS011;39658;51.090;-1.786;2024-02-26T04:41:37;4.80;;;2.33;;
53261;SDS011;39658;51.090;-1.786;2024-02-26T04:44:04;6.18;;;1.90;;
53261;SDS011;39658;51.090;-1.786;2024-02-26T04:46:31;3.20;;;1.50;;
53261;SDS011;39658;51.090;-1.786;2024-02-26T04:48:58;7.68;;;1.80;;
53261;SDS011;39658;51.090;-1.786;2024-02-26T04:51:25;4.43;;;1.77;;
53261;SDS011;39658;51.090;-1.786;2024-02-26T04:53:51;6.80;;;2.33;;
53261;SDS011;39658;51.090;-1.786;2024-02-26T04:56:21;4.72;;;1.88;;
53261;SDS011;39658;51.090;-1.786;2024-02-26T04:58:48;8.70;;;1.10;;
53261;SDS011;39658;51.090;-1.786;2024-02-26T05:01:15;6.03;;;1.92;;
53261;SDS011;39658;51.090;-1.786;2024-02-26T05:03:42;7.55;;;2.00;;
53261;SDS011;39658;51.090;-1.786;2024-02-26T05:06:09;5.78;;;1.40;;
53261;SDS011;39658;51.090;-1.786;2024-02-26T05:08:36;10.95;;;1.95;;
53261;SDS011;39658;51.090;-1.786;2024-02-26T05:11:03;6.15;;;1.83;;
53261;SDS011;39658;51.090;-1.786;2024-02-26T05:13:32;4.00;;;1.40;;
53261;SDS011;39658;51.090;-1.786;2024-02-26T05:15:59;5.43;;;1.30;;
53261;SDS011;39658;51.090;-1.786;2024-02-26T05:18:25;4.75;;;1.60;;
53261;SDS011;39658;51.090;-1.786;2024-02-26T05:20:52;4.18;;;1.63;;
53261;SDS011;39658;51.090;-1.786;2024-02-26T05:23:19;9.80;;;1.17;;
53261;SDS011;39658;51.090;-1.786;2024-02-26T05:25:46;4.28;;;1.70;;
53261;SDS011;39658;51.090;-1.786;2024-02-26T05:28:13;4.53;;;1.63;;
53261;SDS011;39658;51.090;-1.786;2024-02-26T05:30:43;10.82;;;2.03;;
53261;SDS011;39658;51.090;-1.786;2024-02-26T05:33:09;7.78;;;1.10;;
53261;SDS011;39658;51.090;-1.786;2024-02-26T05:35:36;4.10;;;1.30;;
53261;SDS011;39658;51.090;-1.786;2024-02-26T05:38:03;4.47;;;1.17;;
53261;SDS011;39658;51.090;-1.786;2024-02-26T05:40:30;11.88;;;1.42;;
53261;SDS011;39658;51.090;-1.786;2024-02-26T05:42:57;7.22;;;1.20;;
53261;SDS011;39658;51.090;-1.786;2024-02-26T05:45:24;4.55;;;1.48;;
53261;SDS011;39658;51.090;-1.786;2024-02-26T05:47:52;2.33;;;0.85;;
53261;SDS011;39658;51.090;-1.786;2024-02-26T05:50:18;1.92;;;0.85;;
53261;SDS011;39658;51.090;-1.786;2024-02-26T05:52:46;4.63;;;1.00;;
53261;SDS011;39658;51.090;-1.786;2024-02-26T05:55:12;6.13;;;1.30;;
53261;SDS011;39658;51.090;-1.786;2024-02-26T05:57:39;9.98;;;1.50;;
53261;SDS011;39658;51.090;-1.786;2024-02-26T06:00:07;2.30;;;0.70;;
53261;SDS011;39658;51.090;-1.786;2024-02-26T06:02:34;4.05;;;1.10;;
53261;SDS011;39658;51.090;-1.786;2024-02-26T06:05:02;4.20;;;1.20;;
53261;SDS011;39658;51.090;-1.786;2024-02-26T06:07:30;2.58;;;1.00;;
53261;SDS011;39658;51.090;-1.786;2024-02-26T06:09:57;3.80;;;1.10;;
53261;SDS011;39658;51.090;-1.786;2024-02-26T06:12:24;5.55;;;1.73;;
53261;SDS011;39658;51.090;-1.786;2024-02-26T06:14:51;3.25;;;1.13;;
53261;SDS011;39658;51.090;-1.786;2024-02-26T06:17:18;6.97;;;1.27;;
53261;SDS011;39658;51.090;-1.786;2024-02-26T06:19:45;3.40;;;1.05;;
53261;SDS011;39658;51.090;-1.786;2024-02-26T06:22:13;4.57;;;1.25;;
53261;SDS011;39658;51.090;-1.786;2024-02-26T06:24:40;6.72;;;1.70;;
53261;SDS011;39658;51.090;-1.786;2024-02-26T06:27:07;4.60;;;1.20;;
53261;SDS011;39658;51.090;-1.786;2024-02-26T06:29:33;3.10;;;0.80;;
53261;SDS011;39658;51.090;-1.786;2024-02-26T06:32:00;5.18;;;1.50;;
53261;SDS011;39658;51.090;-1.786;2024-02-26T06:34:28;2.15;;;0.77;;
53261;SDS011;39658;51.090;-1.786;2024-02-26T06:36:54;3.85;;;0.80;;
53261;SDS011;39658;51.090;-1.786;2024-02-26T06:39:23;4.47;;;1.40;;
53261;SDS011;39658;51.090;-1.786;2024-02-26T06:41:51;3.33;;;1.25;;
53261;SDS011;39658;51.090;-1.786;2024-02-26T06:44:24;3.80;;;1.65;;
53261;SDS011;39658;51.090;-1.786;2024-02-26T06:46:56;7.50;;;1.27;;
53261;SDS011;39658;51.090;-1.786;2024-02-26T06:49:23;6.68;;;0.98;;
53261;SDS011;39658;51.090;-1.786;2024-02-26T06:51:50;4.93;;;0.95;;
53261;SDS011;39658;51.090;-1.786;2024-02-26T06:54:17;2.85;;;0.93;;
53261;SDS011;39658;51.090;-1.786;2024-02-26T06:56:45;3.63;;;1.15;;
53261;SDS011;39658;51.090;-1.786;2024-02-26T06:59:12;8.25;;;1.38;;
53261;SDS011;39658;51.090;-1.786;2024-02-26T07:01:40;3.90;;;1.77;;
53261;SDS011;39658;51.090;-1.786;2024-02-26T07:04:07;4.13;;;1.35;;
53261;SDS011;39658;51.090;-1.786;2024-02-26T07:06:36;6.90;;;1.50;;
53261;SDS011;39658;51.090;-1.786;2024-02-26T07:09:03;5.22;;;1.45;;
53261;SDS011;39658;51.090;-1.786;2024-02-26T07:11:30;2.67;;;1.10;;
53261;SDS011;39658;51.090;-1.786;2024-02-26T07:13:58;7.57;;;1.48;;
53261;SDS011;39658;51.090;-1.786;2024-02-26T07:16:26;2.78;;;0.93;;
53261;SDS011;39658;51.090;-1.786;2024-02-26T07:18:53;2.88;;;1.02;;
53261;SDS011;39658;51.090;-1.786;2024-02-26T07:21:20;7.15;;;1.33;;
53261;SDS011;39658;51.090;-1.786;2024-02-26T07:23:47;5.13;;;1.13;;
53261;SDS011;39658;51.090;-1.786;2024-02-26T07:26:13;3.05;;;0.93;;
53261;SDS011;39658;51.090;-1.786;2024-02-26T07:28:42;3.45;;;1.17;;
53261;SDS011;39658;51.090;-1.786;2024-02-26T07:31:10;3.40;;;1.17;;
53261;SDS011;39658;51.090;-1.786;2024-02-26T07:33:37;5.25;;;1.20;;
53261;SDS011;39658;51.090;-1.786;2024-02-26T07:36:04;2.70;;;0.82;;
53261;SDS011;39658;51.090;-1.786;2024-02-26T07:38:31;4.10;;;1.10;;
53261;SDS011;39658;51.090;-1.786;2024-02-26T07:40:58;5.20;;;1.75;;
53261;SDS011;39658;51.090;-1.786;2024-02-26T07:43:25;6.10;;;1.10;;
53261;SDS011;39658;51.090;-1.786;2024-02-26T07:45:51;3.28;;;1.02;;
53261;SDS011;39658;51.090;-1.786;2024-02-26T07:48:19;6.50;;;1.23;;
53261;SDS011;39658;51.090;-1.786;2024-02-26T07:50:46;6.38;;;1.60;;
53261;SDS011;39658;51.090;-1.786;2024-02-26T07:53:13;4.63;;;1.55;;
53261;SDS011;39658;51.090;-1.786;2024-02-26T07:55:40;5.00;;;1.20;;
53261;SDS011;39658;51.090;-1.786;2024-02-26T07:58:07;3.95;;;1.10;;
53261;SDS011;39658;51.090;-1.786;2024-02-26T08:00:34;6.18;;;1.17;;
53261;SDS011;39658;51.090;-1.786;2024-02-26T08:03:01;7.15;;;1.58;;
53261;SDS011;39658;51.090;-1.786;2024-02-26T08:05:29;4.22;;;1.23;;
53261;SDS011;39658;51.090;-1.786;2024-02-26T08:07:56;3.40;;;1.10;;
53261;SDS011;39658;51.090;-1.786;2024-02-26T08:10:23;4.80;;;1.50;;
53261;SDS011;39658;51.090;-1.786;2024-02-26T08:12:49;4.18;;;0.98;;
53261;SDS011;39658;51.090;-1.786;2024-02-26T08:15:17;7.68;;;1.17;;
53261;SDS011;39658;51.090;-1.786;2024-02-26T08:17:44;2.67;;;0.70;;
53261;SDS011;39658;51.090;-1.786;2024-02-26T08:20:12;6.00;;;1.15;;
53261;SDS011;39658;51.090;-1.786;2024-02-26T08:22:41;4.00;;;0.95;;
53261;SDS011;39658;51.090;-1.786;2024-02-26T08:25:08;7.25;;;1.35;;
53261;SDS011;39658;51.090;-1.786;2024-02-26T08:27:35;7.57;;;1.52;;
53261;SDS011;39658;51.090;-1.786;2024-02-26T08:30:03;5.82;;;1.00;;
53261;SDS011;39658;51.090;-1.786;2024-02-26T08:32:31;6.50;;;1.40;;
53261;SDS011;39658;51.090;-1.786;2024-02-26T08:34:57;2.85;;;0.70;;
53261;SDS011;39658;51.090;-1.786;2024-02-26T08:37:24;7.25;;;1.52;;
53261;SDS011;39658;51.090;-1.786;2024-02-26T08:39:53;3.92;;;1.38;;
53261;SDS011;39658;51.090;-1.786;2024-02-26T08:42:19;4.93;;;1.23;;
53261;SDS011;39658;51.090;-1.786;2024-02-26T08:44:48;2.20;;;0.55;;
53261;SDS011;39658;51.090;-1.786;2024-02-26T08:47:15;5.65;;;0.95;;
53261;SDS011;39658;51.090;-1.786;2024-02-26T08:49:42;9.25;;;0.82;;
53261;SDS011;39658;51.090;-1.786;2024-02-26T08:52:10;2.97;;;0.73;;
53261;SDS011;39658;51.090;-1.786;2024-02-26T08:54:37;3.42;;;1.05;;
53261;SDS011;39658;51.090;-1.786;2024-02-26T08:57:05;3.20;;;1.13;;
53261;SDS011;39658;51.090;-1.786;2024-02-26T08:59:32;2.58;;;0.77;;
53261;SDS011;39658;51.090;-1.786;2024-02-26T09:01:59;2.35;;;0.50;;
53261;SDS011;39658;51.090;-1.786;2024-02-26T09:04:26;3.33;;;0.90;;
53261;SDS011;39658;51.090;-1.786;2024-02-26T09:06:53;3.35;;;0.90;;
53261;SDS011;39658;51.090;-1.786;2024-02-26T09:09:20;3.30;;;0.70;;
53261;SDS011;39658;51.090;-1.786;2024-02-26T09:11:50;2.72;;;1.10;;
53261;SDS011;39658;51.090;-1.786;2024-02-26T09:14:18;2.63;;;0.98;;
53261;SDS011;39658;51.090;-1.786;2024-02-26T09:16:45;6.07;;;0.80;;
53261;SDS011;39658;51.090;-1.786;2024-02-26T09:19:13;4.18;;;0.70;;
53261;SDS011;39658;51.090;-1.786;2024-02-26T09:21:42;4.75;;;1.20;;
53261;SDS011;39658;51.090;-1.786;2024-02-26T09:24:09;6.07;;;0.93;;
53261;SDS011;39658;51.090;-1.786;2024-02-26T09:26:36;5.70;;;1.10;;
53261;SDS011;39658;51.090;-1.786;2024-02-26T09:29:03;4.57;;;1.02;;
53261;SDS011;39658;51.090;-1.786;2024-02-26T09:31:31;2.67;;;0.50;;
53261;SDS011;39658;51.090;-1.786;2024-02-26T09:33:59;4.80;;;0.80;;
53261;SDS011;39658;51.090;-1.786;2024-02-26T09:36:26;3.72;;;0.77;;
53261;SDS011;39658;51.090;-1.786;2024-02-26T09:38:52;2.95;;;0.93;;
53261;SDS011;39658;51.090;-1.786;2024-02-26T09:41:19;4.15;;;1.27;;
53261;SDS011;39658;51.090;-1.786;2024-02-26T09:43:47;4.13;;;1.02;;
53261;SDS011;39658;51.090;-1.786;2024-02-26T09:46:18;5.65;;;1.52;;
53261;SDS011;39658;51.090;-1.786;2024-02-26T09:48:46;3.30;;;0.63;;
53261;SDS011;39658;51.090;-1.786;2024-02-26T09:51:14;5.40;;;0.85;;
53261;SDS011;39658;51.090;-1.786;2024-02-26T09:53:42;3.55;;;0.95;;
53261;SDS011;39658;51.090;-1.786;2024-02-26T09:56:11;2.08;;;0.95;;
53261;SDS011;39658;51.090;-1.786;2024-02-26T09:58:38;5.43;;;1.02;;
53261;SDS011;39658;51.090;-1.786;2024-02-26T10:01:07;4.20;;;0.93;;
53261;SDS011;39658;51.090;-1.786;2024-02-26T10:03:38;2.13;;;0.70;;
53261;SDS011;39658;51.090;-1.786;2024-02-26T10:06:08;3.25;;;1.10;;
53261;SDS011;39658;51.090;-1.786;2024-02-26T10:08:35;3.25;;;0.90;;
53261;SDS011;39658;51.090;-1.786;2024-02-26T10:11:02;6.50;;;1.42;;
53261;SDS011;39658;51.090;-1.786;2024-02-26T10:13:30;2.83;;;0.77;;
53261;SDS011;39658;51.090;-1.786;2024-02-26T10:15:57;3.55;;;0.98;;
53261;SDS011;39658;51.090;-1.786;2024-02-26T10:18:24;8.40;;;0.90;;
53261;SDS011;39658;51.090;-1.786;2024-02-26T10:20:58;5.13;;;1.42;;
53261;SDS011;39658;51.090;-1.786;2024-02-26T10:23:27;3.22;;;0.82;;
53261;SDS011;39658;51.090;-1.786;2024-02-26T10:25:54;5.68;;;0.90;;
53261;SDS011;39658;51.090;-1.786;2024-02-26T10:28:22;5.45;;;1.05;;
53261;SDS011;39658;51.090;-1.786;2024-02-26T10:30:49;4.07;;;0.90;;
53261;SDS011;39658;51.090;-1.786;2024-02-26T10:33:17;2.50;;;1.20;;
53261;SDS011;39658;51.090;-1.786;2024-02-26T10:35:45;2.28;;;0.82;;
53261;SDS011;39658;51.090;-1.786;2024-02-26T10:38:12;3.28;;;1.15;;
53261;SDS011;39658;51.090;-1.786;2024-02-26T10:40:43;5.43;;;0.90;;
53261;SDS011;39658;51.090;-1.786;2024-02-26T10:43:10;7.22;;;1.20;;
53261;SDS011;39658;51.090;-1.786;2024-02-26T10:45:38;5.70;;;0.60;;
53261;SDS011;39658;51.090;-1.786;2024-02-26T10:48:09;4.72;;;1.13;;
53261;SDS011;39658;51.090;-1.786;2024-02-26T10:50:37;1.95;;;0.63;;
53261;SDS011;39658;51.090;-1.786;2024-02-26T10:53:05;4.10;;;1.42;;
53261;SDS011;39658;51.090;-1.786;2024-02-26T10:55:48;5.10;;;1.05;;
53261;SDS011;39658;51.090;-1.786;2024-02-26T10:58:18;3.95;;;0.95;;
53261;SDS011;39658;51.090;-1.786;2024-02-26T11:00:46;2.78;;;1.02;;
53261;SDS011;39658;51.090;-1.786;2024-02-26T11:03:15;3.03;;;0.80;;
53261;SDS011;39658;51.090;-1.786;2024-02-26T11:05:45;3.25;;;0.80;;
53261;SDS011;39658;51.090;-1.786;2024-02-26T11:08:13;2.20;;;0.50;;
53261;SDS011;39658;51.090;-1.786;2024-02-26T11:10:41;5.05;;;0.80;;
53261;SDS011;39658;51.090;-1.786;2024-02-26T11:13:10;2.60;;;0.55;;
53261;SDS011;39658;51.090;-1.786;2024-02-26T11:15:40;5.95;;;1.00;;
53261;SDS011;39658;51.090;-1.786;2024-02-26T11:18:08;5.53;;;1.40;;
53261;SDS011;39658;51.090;-1.786;2024-02-26T11:20:35;6.28;;;1.23;;
53261;SDS011;39658;51.090;-1.786;2024-02-26T11:23:06;3.70;;;0.70;;
53261;SDS011;39658;51.090;-1.786;2024-02-26T11:25:33;7.97;;;1.20;;
53261;SDS011;39658;51.090;-1.786;2024-02-26T11:28:01;5.53;;;1.20;;
53261;SDS011;39658;51.090;-1.786;2024-02-26T11:30:33;2.90;;;0.93;;
53261;SDS011;39658;51.090;-1.786;2024-02-26T11:33:06;3.60;;;0.80;;
53261;SDS011;39658;51.090;-1.786;2024-02-26T11:35:34;4.07;;;0.90;;
53261;SDS011;39658;51.090;-1.786;2024-02-26T11:38:03;3.78;;;0.90;;
53261;SDS011;39658;51.090;-1.786;2024-02-26T11:40:31;4.43;;;1.15;;
53261;SDS011;39658;51.090;-1.786;2024-02-26T11:42:59;4.80;;;0.88;;
53261;SDS011;39658;51.090;-1.786;2024-02-26T11:48:25;3.65;;;1.13;;
53261;SDS011;39658;51.090;-1.786;2024-02-26T11:50:55;3.47;;;1.13;;
53261;SDS011;39658;51.090;-1.786;2024-02-26T11:53:22;5.00;;;1.20;;
53261;SDS011;39658;51.090;-1.786;2024-02-26T11:58:58;2.75;;;0.88;;
53261;SDS011;39658;51.090;-1.786;2024-02-26T12:01:37;4.68;;;1.15;;
53261;SDS011;39658;51.090;-1.786;2024-02-26T12:04:24;2.20;;;1.08;;
53261;SDS011;39658;51.090;-1.786;2024-02-26T12:06:54;2.45;;;0.60;;
53261;SDS011;39658;51.090;-1.786;2024-02-26T12:09:35;3.13;;;0.70;;
53261;SDS011;39658;51.090;-1.786;2024-02-26T12:12:03;3.55;;;0.55;;
53261;SDS011;39658;51.090;-1.786;2024-02-26T12:14:32;5.03;;;0.77;;
53261;SDS011;39658;51.090;-1.786;2024-02-26T12:17:02;3.90;;;0.70;;
53261;SDS011;39658;51.090;-1.786;2024-02-26T12:19:32;2.63;;;0.70;;
53261;SDS011;39658;51.090;-1.786;2024-02-26T12:22:01;2.15;;;0.77;;
53261;SDS011;39658;51.090;-1.786;2024-02-26T12:24:28;3.47;;;0.82;;
53261;SDS011;39658;51.090;-1.786;2024-02-26T12:26:55;2.13;;;0.80;;
53261;SDS011;39658;51.090;-1.786;2024-02-26T12:29:23;2.65;;;0.50;;
53261;SDS011;39658;51.090;-1.786;2024-02-26T12:31:50;2.75;;;0.43;;
53261;SDS011;39658;51.090;-1.786;2024-02-26T12:34:18;3.97;;;0.60;;
53261;SDS011;39658;51.090;-1.786;2024-02-26T12:36:45;3.85;;;0.75;;
53261;SDS011;39658;51.090;-1.786;2024-02-26T12:39:12;5.20;;;0.85;;
53261;SDS011;39658;51.090;-1.786;2024-02-26T12:41:39;3.25;;;0.65;;
53261;SDS011;39658;51.090;-1.786;2024-02-26T12:44:07;2.72;;;0.70;;
53261;SDS011;39658;51.090;-1.786;2024-02-26T12:46:34;4.55;;;0.85;;
53261;SDS011;39658;51.090;-1.786;2024-02-26T12:49:01;2.83;;;0.98;;
53261;SDS011;39658;51.090;-1.786;2024-02-26T12:51:29;2.97;;;1.02;;
53261;SDS011;39658;51.090;-1.786;2024-02-26T12:53:56;3.30;;;0.57;;
53261;SDS011;39658;51.090;-1.786;2024-02-26T12:56:23;3.78;;;1.25;;
53261;SDS011;39658;51.090;-1.786;2024-02-26T12:58:53;2.85;;;0.85;;
53261;SDS011;39658;51.090;-1.786;2024-02-26T13:01:21;3.83;;;0.93;;
53261;SDS011;39658;51.090;-1.786;2024-02-26T13:03:49;4.95;;;1.05;;
53261;SDS011;39658;51.090;-1.786;2024-02-26T13:06:17;3.92;;;0.70;;
53261;SDS011;39658;51.090;-1.786;2024-02-26T13:08:46;6.10;;;1.00;;
53261;SDS011;39658;51.090;-1.786;2024-02-26T13:11:13;3.22;;;0.50;;
53261;SDS011;39658;51.090;-1.786;2024-02-26T13:13:40;3.53;;;0.90;;
53261;SDS011;39658;51.090;-1.786;2024-02-26T13:16:08;3.78;;;1.08;;
53261;SDS011;39658;51.090;-1.786;2024-02-26T13:18:40;7.18;;;0.85;;
53261;SDS011;39658;51.090;-1.786;2024-02-26T13:21:08;3.13;;;0.90;;
53261;SDS011;39658;51.090;-1.786;2024-02-26T13:23:36;1.98;;;0.70;;
53261;SDS011;39658;51.090;-1.786;2024-02-26T13:26:05;8.00;;;0.88;;
53261;SDS011;39658;51.090;-1.786;2024-02-26T13:28:33;5.47;;;0.75;;
53261;SDS011;39658;51.090;-1.786;2024-02-26T13:31:00;4.03;;;0.80;;
53261;SDS011;39658;51.090;-1.786;2024-02-26T13:33:29;5.38;;;0.70;;
53261;SDS011;39658;51.090;-1.786;2024-02-26T13:35:57;4.97;;;0.85;;
53261;SDS011;39658;51.090;-1.786;2024-02-26T13:38:25;4.32;;;0.95;;
53261;SDS011;39658;51.090;-1.786;2024-02-26T13:40:53;3.83;;;1.00;;
53261;SDS011;39658;51.090;-1.786;2024-02-26T13:43:22;4.00;;;0.75;;
53261;SDS011;39658;51.090;-1.786;2024-02-26T13:45:48;7.82;;;0.82;;
53261;SDS011;39658;51.090;-1.786;2024-02-26T13:48:15;5.72;;;1.00;;
53261;SDS011;39658;51.090;-1.786;2024-02-26T13:50:42;2.75;;;0.90;;
53261;SDS011;39658;51.090;-1.786;2024-02-26T13:53:10;5.32;;;1.00;;
53261;SDS011;39658;51.090;-1.786;2024-02-26T13:55:37;2.90;;;0.63;;
53261;SDS011;39658;51.090;-1.786;2024-02-26T13:58:05;2.47;;;0.70;;
53261;SDS011;39658;51.090;-1.786;2024-02-26T14:00:33;4.63;;;0.93;;
53261;SDS011;39658;51.090;-1.786;2024-02-26T14:03:00;2.80;;;1.08;;
53261;SDS011;39658;51.090;-1.786;2024-02-26T14:05:27;4.28;;;1.00;;
53261;SDS011;39658;51.090;-1.786;2024-02-26T14:07:55;5.88;;;0.60;;
53261;SDS011;39658;51.090;-1.786;2024-02-26T14:10:22;2.50;;;0.43;;
53261;SDS011;39658;51.090;-1.786;2024-02-26T14:12:48;3.97;;;0.65;;
53261;SDS011;39658;51.090;-1.786;2024-02-26T14:15:15;3.00;;;0.50;;
53261;SDS011;39658;51.090;-1.786;2024-02-26T14:17:44;3.50;;;0.70;;
53261;SDS011;39658;51.090;-1.786;2024-02-26T14:20:11;2.72;;;0.65;;
53261;SDS011;39658;51.090;-1.786;2024-02-26T14:22:38;2.47;;;0.85;;
53261;SDS011;39658;51.090;-1.786;2024-02-26T14:25:05;4.88;;;0.93;;
53261;SDS011;39658;51.090;-1.786;2024-02-26T14:27:34;3.47;;;0.93;;
53261;SDS011;39658;51.090;-1.786;2024-02-26T14:30:01;2.33;;;0.50;;
53261;SDS011;39658;51.090;-1.786;2024-02-26T14:32:28;2.60;;;0.50;;
53261;SDS011;39658;51.090;-1.786;2024-02-26T14:34:57;1.83;;;0.60;;
53261;SDS011;39658;51.090;-1.786;2024-02-26T14:37:24;2.13;;;0.50;;
53261;SDS011;39658;51.090;-1.786;2024-02-26T14:39:51;3.58;;;0.73;;
53261;SDS011;39658;51.090;-1.786;2024-02-26T14:42:18;2.95;;;0.90;;